Flight Track Log - Related Links

Times and Time Zones

All times are in EDT time to prevent confusion due to time zone crossing. See the GJS3618 flight status page for this flight to view local times or setup timezone preferences in your user account.

Time Position Orientation Groundspeed Altitude Reporting Facility
EDT Latitude Longitude Course Direction KTS MPH feet Rate Location/Type
Wed 10:14:02 PM 41.9500 -87.9833 270° West 206 237 3,700  Level Chicago TRACON
Wed 10:15:02 PM 41.9333 -88.0833 257° West 255 293 5,000 911 Climbing Chicago TRACON
Wed 10:15:54 PM 41.9344 -88.1492 271° West 259 298 5,400 1,540 Climbing Chicago Center
Wed 10:16:55 PM 41.9508 -88.2436 283° West 279 321 7,900 2,439 Climbing Chicago Center
Wed 10:17:57 PM 41.9986 -88.3322 306° West 291 335 10,400 2,390 Climbing Chicago Center
Wed 10:18:58 PM 42.0531 -88.4392 304° West 291 335 12,800 2,016 Climbing Chicago Center
Wed 10:19:00 PM 41.9668 -88.8678 270° West  Level FlightAware Approximate
Wed 10:19:59 PM 42.0553 -88.5514 272° West 295 339 14,500  Level Chicago Center
Wed 10:21:00 PM 42.0522 -88.6700 268° West 311 358 16,400 1,902 Climbing Chicago Center
Wed 10:22:02 PM 42.0486 -88.7933 268° West 329 379 18,400 1,902 Climbing Chicago Center
Wed 10:23:03 PM 42.0511 -88.9164 272° West 332 382 20,300 1,820 Climbing Chicago Center
Wed 10:24:04 PM 42.0572 -89.0419 274° West 336 387 22,100 1,672 Climbing Chicago Center
Wed 10:25:05 PM 42.0639 -89.1714 274° West 347 399 23,700 1,574 Climbing Chicago Center
Wed 10:26:06 PM 42.0733 -89.3258 275° West 358 412 25,300 1,475 Climbing Chicago Center
Wed 10:27:07 PM 42.0817 -89.4608 275° West 361 415 26,700 1,279 Climbing Chicago Center
Wed 10:28:08 PM 42.0917 -89.5994 276° West 370 426 27,900 1,279 Climbing Chicago Center
Wed 10:29:09 PM 42.1033 -89.7400 276° West 375 432 29,300 1,033 Climbing Chicago Center
Wed 10:30:10 PM 42.1139 -89.8819 276° West 377 434 30,000 689 Climbing Chicago Center
Wed 10:31:11 PM 42.1239 -90.0361 275° West 391 450 30,700 780 Climbing Chicago Center
Wed 10:32:13 PM 42.1344 -90.1861 275° West 405 466 31,600 829 Climbing Chicago Center
Wed 10:33:14 PM 42.1467 -90.3378 276° West 409 471 32,400 738 Climbing Chicago Center
Wed 10:34:15 PM 42.1731 -90.4883 283° West 422 486 33,100 689 Climbing Chicago Center
Wed 10:35:16 PM 42.2150 -90.6358 291° West 424 488 33,800 738 Climbing Chicago Center
Wed 10:36:17 PM 42.2569 -90.7853 291° West 427 491 34,600 738 Climbing Chicago Center
Wed 10:37:18 PM 42.2981 -90.9356 290° West 430 495 35,300 689 Climbing Chicago Center
Wed 10:38:19 PM 42.3481 -91.1139 291° West 426 490 36,000 344 Climbing Chicago Center
Wed 10:39:20 PM 42.3900 -91.2686 290° West 436 502 36,000  Level Chicago Center
Wed 10:40:22 PM 42.4331 -91.4286 290° West 452 520 36,000  Level Chicago Center
Wed 10:41:23 PM 42.4778 -91.5942 290° West 464 534 36,000  Level Chicago Center
Wed 10:42:24 PM 42.5225 -91.7617 290° West 469 540 36,000  Level Chicago Center
Wed 10:43:25 PM 42.5656 -91.9264 290° West 464 534 36,000 98 Level Chicago Center
Wed 10:44:26 PM 42.6083 -92.0892 290° West 459 528 36,200 639 Climbing Chicago Center
Wed 10:45:27 PM 42.6528 -92.2528 290° West 464 534 37,300 885 Climbing Chicago Center
Wed 10:46:28 PM 42.6931 -92.4100 289° West 448 516 38,000 341 Climbing Chicago Center
Wed 10:47:30 PM 42.7325 -92.5639 289° West 437 503 38,000  Level Chicago Center
Wed 10:48:31 PM 42.7792 -92.7486 289° West 434 499 38,000  Level Chicago Center
Wed 10:49:32 PM 42.8181 -92.9044 289° West 438 504 38,000  Level Chicago Center
Wed 10:50:33 PM 42.8572 -93.0578 289° West 434 499 38,000  Level Chicago Center
Wed 10:51:34 PM 42.8956 -93.2103 289° West 430 495 38,000  Level Chicago Center
Wed 10:52:35 PM 42.9344 -93.3639 289° West 430 495 38,000  Level Chicago Center
Wed 10:53:37 PM 42.9714 -93.5183 288° West 432 497 38,000  Level Chicago Center
Wed 10:54:38 PM 43.0097 -93.6739 289° West 434 499 38,000  Level Chicago Center
Wed 10:55:39 PM 43.0494 -93.8297 289° West 438 504 38,000  Level Chicago Center
Wed 10:56:40 PM 43.0939 -94.0161 288° West 434 499 38,000  Level Chicago Center
Wed 10:58:04 PM 43.1444 -94.2350 288° West 436 502 38,000  Level Minneapolis Center
Wed 10:59:05 PM 43.1808 -94.3758 290° West 434 499 38,000  Level Minneapolis Center
Wed 11:00:07 PM 43.2175 -94.5319 288° West 432 497 38,000  Level Minneapolis Center
Wed 11:01:08 PM 43.2539 -94.6886 288° West 433 498 38,000  Level Minneapolis Center
Wed 11:02:09 PM 43.2978 -94.8775 288° West 434 499 38,000  Level Minneapolis Center
Wed 11:03:10 PM 43.3342 -95.0333 288° West 430 495 38,000  Level Minneapolis Center
Wed 11:04:12 PM 43.3703 -95.1897 288° West 429 494 38,000  Level Minneapolis Center
Wed 11:05:13 PM 43.4061 -95.3494 287° West 435 501 38,000  Level Minneapolis Center
Wed 11:06:14 PM 43.4425 -95.5078 288° West 435 501 38,000  Level Minneapolis Center
Wed 11:07:15 PM 43.4783 -95.6667 287° West 435 501 38,000  Level Minneapolis Center
Wed 11:08:16 PM 43.5147 -95.8281 287° West 438 504 38,000  Level Minneapolis Center
Wed 11:09:18 PM 43.5508 -95.9886 287° West 438 504 38,000  Level Minneapolis Center
Wed 11:10:19 PM 43.5861 -96.1489 287° West 436 502 38,000  Level Minneapolis Center
Wed 11:11:20 PM 43.6203 -96.3078 287° West 433 498 38,000  Level Minneapolis Center
Wed 11:12:21 PM 43.6553 -96.4661 287° West 430 495 38,000  Level Minneapolis Center
Wed 11:13:23 PM 43.6892 -96.6250 286° West 429 494 38,000  Level Minneapolis Center
Wed 11:14:24 PM 43.7294 -96.8136 287° West 426 490 38,000  Level Minneapolis Center
Wed 11:15:25 PM 43.7622 -96.9703 286° West 425 489 38,000  Level Minneapolis Center
Wed 11:16:26 PM 43.7953 -97.1300 286° West 429 494 38,000  Level Minneapolis Center
Wed 11:17:27 PM 43.8286 -97.2894 286° West 431 496 38,000  Level Minneapolis Center
Wed 11:18:28 PM 43.8553 -97.4169 286° West 432 497 38,000  Level Minneapolis Center
Wed 11:19:30 PM 43.8939 -97.6089 286° West 430 495 38,000  Level Minneapolis Center
Wed 11:20:31 PM 43.9269 -97.7661 286° West 427 491 38,000  Level Minneapolis Center
Wed 11:21:32 PM 43.9581 -97.9239 285° West 425 489 38,000  Level Minneapolis Center
Wed 11:22:34 PM 43.9900 -98.0814 286° West 426 490 38,000  Level Minneapolis Center
Wed 11:23:35 PM 44.0208 -98.2375 285° West 422 486 38,000  Level Minneapolis Center
Wed 11:24:36 PM 44.0517 -98.3936 285° West 421 484 38,000  Level Minneapolis Center
Wed 11:25:37 PM 44.0883 -98.5803 285° West 418 481 38,000  Level Minneapolis Center
Wed 11:26:39 PM 44.1192 -98.7392 285° West 418 481 38,000  Level Minneapolis Center
Wed 11:27:40 PM 44.1492 -98.8939 285° West 415 478 38,000  Level Minneapolis Center
Wed 11:28:41 PM 44.1781 -99.0500 285° West 416 479 38,000  Level Minneapolis Center
Wed 11:29:42 PM 44.2089 -99.2053 286° West 417 480 38,000  Level Minneapolis Center
Wed 11:30:43 PM 44.2319 -99.3308 284° West 417 480 38,000  Level Minneapolis Center
Wed 11:31:45 PM 44.2661 -99.5197 284° West 418 481 38,000  Level Minneapolis Center
Wed 11:32:46 PM 44.2958 -99.6781 285° West 420 483 38,000  Level Minneapolis Center
Wed 11:33:47 PM 44.3236 -99.8361 284° West 419 482 38,000  Level Minneapolis Center
Wed 11:34:49 PM 44.3531 -99.9925 285° West 417 480 38,000  Level Minneapolis Center
Wed 11:35:50 PM 44.3800 -100.1486 284° West 414 476 38,000  Level Minneapolis Center
Wed 11:36:51 PM 44.4086 -100.3039 285° West 412 474 38,000  Level Minneapolis Center
Wed 11:37:52 PM 44.4364 -100.4594 284° West 411 473 38,000  Level Minneapolis Center
Wed 11:38:54 PM 44.4622 -100.6150 283° West 410 472 38,000  Level Minneapolis Center
Wed 11:39:55 PM 44.4947 -100.8028 284° West 412 474 38,000  Level Minneapolis Center
Wed 11:40:56 PM 44.5214 -100.9597 283° West 413 475 38,000  Level Minneapolis Center
Wed 11:41:57 PM 44.5483 -101.1189 283° West 415 478 38,000  Level Minneapolis Center
Wed 11:42:58 PM 44.5756 -101.2786 284° West 418 481 38,000  Level Minneapolis Center
Wed 11:43:43 PM 44.5975 -101.4067 284° West 423 487 38,000  Level Denver Center
Wed 11:44:45 PM 44.6247 -101.5683 283° West 425 489 38,000  Level Denver Center
Wed 11:45:46 PM 44.6522 -101.7281 284° West 423 487 38,000  Level Denver Center
Wed 11:46:47 PM 44.6781 -101.8886 283° West 422 486 38,000  Level Denver Center
Wed 11:47:49 PM 44.7047 -102.0497 283° West 422 486 38,000  Level Denver Center
Wed 11:48:50 PM 44.7300 -102.2083 283° West 419 482 38,000  Level Denver Center
Wed 11:49:52 PM 44.7544 -102.3644 282° West 412 474 38,000  Level Denver Center
Wed 11:50:53 PM 44.7786 -102.5225 282° West 413 475 38,000  Level Denver Center
Wed 11:51:55 PM 44.8047 -102.6817 283° West 415 478 38,000  Level Denver Center
Wed 11:52:56 PM 44.8286 -102.8392 282° West 413 475 38,000  Level Denver Center
Wed 11:53:57 PM 44.8561 -103.0272 282° West 410 472 38,000  Level Denver Center
Wed 11:54:59 PM 44.8764 -103.1531 283° West 411 473 38,000  Level Denver Center
Wed 11:55:32 PM 44.8917 -103.2575 282° West 409 471 38,000  Level Salt Lake Center
Wed 11:56:33 PM 44.9142 -103.4072 282° West 409 471 38,000  Level Salt Lake Center
Wed 11:57:34 PM 44.9392 -103.5808 282° West 406 467 38,000  Level Salt Lake Center
Wed 11:58:15 PM 44.9508 -103.6589 282° West 409 471 38,000  Level Denver Center
Wed 11:59:17 PM 44.9797 -103.8614 281° West 413 475 38,000  Level Denver Center
Thu 12:00:18 AM 45.0008 -104.0111 281° West 410 472 38,000  Level Denver Center
Thu 12:01:20 AM 45.0231 -104.1628 282° West 412 474 38,000  Level Denver Center
Thu 12:02:21 AM 45.0464 -104.3383 281° West 408 470 38,000  Level Denver Center
Thu 12:03:22 AM 45.0697 -104.4964 282° West 410 472 38,000  Level Denver Center
Thu 12:04:24 AM 45.0900 -104.6525 280° West 406 467 38,000  Level Denver Center
Thu 12:05:25 AM 45.1122 -104.8078 282° West 404 465 38,000  Level Denver Center
Thu 12:06:26 AM 45.1317 -104.9631 280° West 403 464 38,000  Level Denver Center
Thu 12:07:28 AM 45.1533 -105.1189 281° West 404 465 38,000  Level Denver Center
Thu 12:08:29 AM 45.1725 -105.2728 280° West 402 463 38,000  Level Denver Center
Thu 12:09:30 AM 45.1972 -105.4589 281° West 401 461 38,000  Level Denver Center
Thu 12:10:31 AM 45.2128 -105.5842 280° West 403 464 38,000  Level Denver Center
Thu 12:11:33 AM 45.2364 -105.7683 280° West 399 459 38,000  Level Denver Center
Thu 12:12:34 AM 45.2558 -105.9228 280° West 399 459 38,000  Level Denver Center
Thu 12:13:36 AM 45.2750 -106.0778 280° West 400 460 38,000  Level Denver Center
Thu 12:14:37 AM 45.2936 -106.2339 280° West 401 461 38,000  Level Denver Center
Thu 12:15:38 AM 45.3131 -106.3936 280° West 408 470 38,000  Level Denver Center
Thu 12:16:40 AM 45.3317 -106.5511 280° West 408 470 38,000  Level Denver Center
Thu 12:17:57 AM 45.3581 -106.7739 280° West 408 470 38,000  Level Salt Lake Center
Thu 12:18:58 AM 45.3761 -106.9331 279° West 409 471 38,000  Level Salt Lake Center
Thu 12:19:59 AM 45.3936 -107.0900 279° West 406 467 38,000  Level Salt Lake Center
Thu 12:21:00 AM 45.4094 -107.2431 278° West 397 457 38,000  Level Salt Lake Center
Thu 12:22:02 AM 45.4278 -107.3994 280° West 400 460 38,000  Level Salt Lake Center
Thu 12:23:03 AM 45.4444 -107.5539 279° West 398 458 38,000 49 Level Salt Lake Center
Thu 12:24:04 AM 45.4619 -107.7094 279° West 402 463 38,100  Climbing Salt Lake Center
Thu 12:25:05 AM 45.4814 -107.8956 279° West 397 457 38,000 -49 Descending Salt Lake Center
Thu 12:26:06 AM 45.4978 -108.0542 278° West 406 467 38,000  Level Salt Lake Center
Thu 12:27:08 AM 45.5139 -108.2117 278° West 406 467 38,000  Level Salt Lake Center
Thu 12:28:09 AM 45.5286 -108.3669 278° West 401 461 38,000  Level Salt Lake Center
Thu 12:29:10 AM 45.5453 -108.5250 279° West 405 466 38,000  Level Salt Lake Center
Thu 12:30:11 AM 45.5600 -108.6808 278° West 400 460 38,000 -195 Level Salt Lake Center
Thu 12:31:13 AM 45.5761 -108.8364 278° West 399 459 37,600 -1,415 Descending Salt Lake Center
Thu 12:32:14 AM 45.5906 -108.9914 278° West 395 455 35,100 -2,557 Descending Salt Lake Center
Thu 12:33:15 AM 45.6089 -109.1711 278° West 384 442 32,400 -2,410 Descending Salt Lake Center
Thu 12:34:16 AM 45.6222 -109.3131 278° West 366 421 30,200 -2,146 Descending Salt Lake Center
Thu 12:35:18 AM 45.6353 -109.4522 278° West 355 409 28,000 -2,146 Descending Salt Lake Center
Thu 12:36:19 AM 45.6475 -109.5883 277° West 348 400 25,800 -2,164 Descending Salt Lake Center
Thu 12:37:20 AM 45.6597 -109.7225 277° West 344 396 23,600 -2,164 Descending Salt Lake Center
Thu 12:38:21 AM 45.6719 -109.8553 278° West 339 390 21,400 -2,146 Descending Salt Lake Center
Thu 12:39:23 AM 45.6828 -109.9853 277° West 333 383 19,200 -2,000 Descending Salt Lake Center
Thu 12:40:24 AM 45.6919 -110.1136 276° West 328 377 17,300 -1,770 Descending Salt Lake Center
Thu 12:41:25 AM 45.7044 -110.2389 278° West 322 371 15,600 -1,902 Descending Salt Lake Center
Thu 12:42:27 AM 45.7156 -110.3783 277° West 301 346 13,400 -1,659 Descending Salt Lake Center
Thu 12:43:28 AM 45.7247 -110.4875 277° West 284 327 12,200 -639 Descending Salt Lake Center
Thu 12:44:29 AM 45.7333 -110.5883 277° West 265 305 12,100 -49 Descending Salt Lake Center
Thu 12:45:30 AM 45.7675 -110.6744 300° West 254 292 12,100  Level Salt Lake Center
Thu 12:46:31 AM 45.8056 -110.7617 302° West 256 295 12,100  Level Salt Lake Center
Thu 12:47:33 AM 45.8361 -110.8456 298° West 255 293 12,100  Level Salt Lake Center
Thu 12:48:34 AM 45.8778 -110.9453 301° West 247 284 12,100  Level Salt Lake Center
Thu 12:49:35 AM 45.9111 -111.0281 300° West 244 281 12,100  Level Salt Lake Center
Thu 12:50:36 AM 45.9444 -111.1108 300° West 243 280 12,100  Level Salt Lake Center
Thu 12:51:38 AM 45.9772 -111.1947 299° West 244 281 12,100 -98 Level Salt Lake Center
Thu 12:52:39 AM 46.0097 -111.2756 300° West 240 276 11,900 -934 Descending Salt Lake Center
Thu 12:53:40 AM 45.9928 -111.3503 252° West 221 254 10,200 -1,623 Descending Salt Lake Center
Thu 12:54:41 AM 45.9453 -111.3811 204° Southwest 230 265 8,600 -1,377 Descending Salt Lake Center
Thu 12:55:42 AM 45.9014 -111.3242 138° Southeast 219 252 7,400 -1,131 Descending Salt Lake Center
Thu 12:56:43 AM 45.8536 -111.2589 136° Southeast 208 239 6,300 -976 Descending Salt Lake Center
Thu 12:57:45 AM 45.8233 -111.2158 135° Southeast 179 206 5,400 -780 Descending Salt Lake Center
Thu 12:58:46 AM 45.7936 -111.1750 136° Southeast 159 183 4,700 -689 Descending Salt Lake Center

Login

Don't have an account? Register now (free) for customized features, flight alerts, and more!